sensor_id;sensor_type;location;lat;lon;timestamp;pressure;altitude;pressure_sealevel;temperature;humidity
28079;BME280;15388;42.238;24.684;2022-09-09T00:00:15;99648.94;;;18.00;97.64
28079;BME280;15388;42.238;24.684;2022-09-09T00:02:47;99643.34;;;18.02;97.16
28079;BME280;15388;42.238;24.684;2022-09-09T00:07:59;99652.34;;;18.17;95.47
28079;BME280;15388;42.238;24.684;2022-09-09T00:10:37;99654.84;;;18.19;94.98
28079;BME280;15388;42.238;24.684;2022-09-09T00:25:30;99647.59;;;17.81;95.52
28079;BME280;15388;42.238;24.684;2022-09-09T00:27:59;99657.50;;;17.80;95.24
28079;BME280;15388;42.238;24.684;2022-09-09T00:30:25;99656.22;;;17.76;95.36
28079;BME280;15388;42.238;24.684;2022-09-09T00:32:55;99660.91;;;17.74;95.52
28079;BME280;15388;42.238;24.684;2022-09-09T00:37:55;99666.97;;;17.76;95.13
28079;BME280;15388;42.238;24.684;2022-09-09T00:40:23;99666.47;;;17.73;95.65
28079;BME280;15388;42.238;24.684;2022-09-09T00:42:58;99661.25;;;17.56;96.53
28079;BME280;15388;42.238;24.684;2022-09-09T00:48:10;99658.66;;;17.63;96.07
28079;BME280;15388;42.238;24.684;2022-09-09T00:53:51;99654.66;;;17.59;96.11
28079;BME280;15388;42.238;24.684;2022-09-09T00:56:25;99659.34;;;17.65;95.71
28079;BME280;15388;42.238;24.684;2022-09-09T01:01:31;99653.22;;;17.71;95.31
28079;BME280;15388;42.238;24.684;2022-09-09T01:03:56;99649.16;;;17.75;95.08
28079;BME280;15388;42.238;24.684;2022-09-09T01:06:34;99651.28;;;17.80;94.95
28079;BME280;15388;42.238;24.684;2022-09-09T01:16:39;99657.38;;;17.97;92.77
28079;BME280;15388;42.238;24.684;2022-09-09T01:19:07;99659.91;;;17.99;92.44
28079;BME280;15388;42.238;24.684;2022-09-09T01:21:39;99657.03;;;18.00;92.74
28079;BME280;15388;42.238;24.684;2022-09-09T01:24:25;99645.84;;;18.03;92.61
28079;BME280;15388;42.238;24.684;2022-09-09T01:26:54;99656.19;;;18.00;92.62
28079;BME280;15388;42.238;24.684;2022-09-09T01:29:22;99650.59;;;18.01;92.54
28079;BME280;15388;42.238;24.684;2022-09-09T01:34:17;99657.13;;;18.07;91.33
28079;BME280;15388;42.238;24.684;2022-09-09T01:36:44;99643.47;;;18.08;91.12
28079;BME280;15388;42.238;24.684;2022-09-09T01:39:10;99647.69;;;18.11;90.82
28079;BME280;15388;42.238;24.684;2022-09-09T01:41:36;99641.81;;;18.07;90.88
28079;BME280;15388;42.238;24.684;2022-09-09T01:44:02;99648.84;;;18.08;91.01
28079;BME280;15388;42.238;24.684;2022-09-09T01:46:28;99650.88;;;18.06;91.20
28079;BME280;15388;42.238;24.684;2022-09-09T01:48:55;99648.84;;;18.08;90.84
28079;BME280;15388;42.238;24.684;2022-09-09T01:51:21;99646.00;;;18.10;90.11
28079;BME280;15388;42.238;24.684;2022-09-09T01:53:46;99655.06;;;18.09;90.27
28079;BME280;15388;42.238;24.684;2022-09-09T02:04:02;99653.88;;;17.73;92.78
28079;BME280;15388;42.238;24.684;2022-09-09T02:06:30;99655.72;;;17.73;93.03
28079;BME280;15388;42.238;24.684;2022-09-09T02:08:59;99654.53;;;17.75;93.21
28079;BME280;15388;42.238;24.684;2022-09-09T02:11:26;99659.56;;;17.78;93.29
28079;BME280;15388;42.238;24.684;2022-09-09T02:13:53;99663.63;;;17.51;94.60
28079;BME280;15388;42.238;24.684;2022-09-09T02:16:28;99662.53;;;17.37;95.74
28079;BME280;15388;42.238;24.684;2022-09-09T02:21:20;99656.09;;;16.34;100.00
28079;BME280;15388;42.238;24.684;2022-09-09T02:23:47;99640.88;;;16.10;100.00
28079;BME280;15388;42.238;24.684;2022-09-09T02:26:14;99655.97;;;16.11;100.00
28079;BME280;15388;42.238;24.684;2022-09-09T02:28:44;99662.31;;;15.93;100.00
28079;BME280;15388;42.238;24.684;2022-09-09T02:31:11;99661.00;;;15.72;100.00
28079;BME280;15388;42.238;24.684;2022-09-09T02:33:40;99660.50;;;15.85;100.00
28079;BME280;15388;42.238;24.684;2022-09-09T02:36:07;99656.63;;;15.88;100.00
28079;BME280;15388;42.238;24.684;2022-09-09T02:38:36;99656.31;;;15.91;100.00
28079;BME280;15388;42.238;24.684;2022-09-09T02:41:04;99662.50;;;15.83;100.00
28079;BME280;15388;42.238;24.684;2022-09-09T02:43:34;99667.69;;;15.85;100.00
28079;BME280;15388;42.238;24.684;2022-09-09T02:48:51;99671.22;;;15.69;100.00
28079;BME280;15388;42.238;24.684;2022-09-09T02:53:47;99663.00;;;15.53;100.00
28079;BME280;15388;42.238;24.684;2022-09-09T02:56:17;99668.19;;;15.55;100.00
28079;BME280;15388;42.238;24.684;2022-09-09T02:58:43;99662.50;;;15.58;100.00
28079;BME280;15388;42.238;24.684;2022-09-09T03:01:09;99657.81;;;15.60;100.00
28079;BME280;15388;42.238;24.684;2022-09-09T03:03:34;99661.50;;;15.68;100.00
28079;BME280;15388;42.238;24.684;2022-09-09T03:06:00;99665.53;;;15.72;100.00
28079;BME280;15388;42.238;24.684;2022-09-09T03:08:25;99658.31;;;15.64;100.00
28079;BME280;15388;42.238;24.684;2022-09-09T03:10:52;99666.03;;;15.75;100.00
28079;BME280;15388;42.238;24.684;2022-09-09T03:13:19;99665.00;;;15.85;100.00
28079;BME280;15388;42.238;24.684;2022-09-09T03:15:44;99660.31;;;15.78;100.00
28079;BME280;15388;42.238;24.684;2022-09-09T03:18:10;99671.22;;;15.85;100.00
28079;BME280;15388;42.238;24.684;2022-09-09T03:20:35;99681.13;;;15.85;100.00
28079;BME280;15388;42.238;24.684;2022-09-09T03:23:00;99680.13;;;15.69;100.00
28079;BME280;15388;42.238;24.684;2022-09-09T03:25:27;99686.13;;;15.71;100.00
28079;BME280;15388;42.238;24.684;2022-09-09T03:27:53;99685.81;;;15.58;100.00
28079;BME280;15388;42.238;24.684;2022-09-09T03:30:23;99690.13;;;15.42;100.00
28079;BME280;15388;42.238;24.684;2022-09-09T03:32:48;99690.25;;;15.24;100.00
28079;BME280;15388;42.238;24.684;2022-09-09T03:35:14;99691.44;;;15.21;100.00
28079;BME280;15388;42.238;24.684;2022-09-09T03:37:40;99698.81;;;15.27;100.00
28079;BME280;15388;42.238;24.684;2022-09-09T03:40:06;99690.25;;;15.24;100.00
28079;BME280;15388;42.238;24.684;2022-09-09T03:42:33;99692.09;;;15.23;100.00
28079;BME280;15388;42.238;24.684;2022-09-09T03:44:58;99687.59;;;15.32;100.00
28079;BME280;15388;42.238;24.684;2022-09-09T03:47:24;99687.81;;;15.47;100.00
28079;BME280;15388;42.238;24.684;2022-09-09T03:49:49;99680.44;;;15.58;100.00
28079;BME280;15388;42.238;24.684;2022-09-09T03:52:15;99681.13;;;15.68;100.00
28079;BME280;15388;42.238;24.684;2022-09-09T03:54:41;99684.97;;;15.82;100.00
28079;BME280;15388;42.238;24.684;2022-09-09T03:57:08;99678.78;;;15.90;100.00
28079;BME280;15388;42.238;24.684;2022-09-09T03:59:33;99670.75;;;15.98;100.00
28079;BME280;15388;42.238;24.684;2022-09-09T04:02:00;99674.09;;;16.00;100.00
28079;BME280;15388;42.238;24.684;2022-09-09T04:04:25;99689.34;;;16.08;100.00
28079;BME280;15388;42.238;24.684;2022-09-09T04:06:51;99684.66;;;16.02;100.00
28079;BME280;15388;42.238;24.684;2022-09-09T04:09:17;99686.47;;;15.85;100.00
28079;BME280;15388;42.238;24.684;2022-09-09T04:11:42;99678.09;;;15.79;100.00
28079;BME280;15388;42.238;24.684;2022-09-09T04:14:08;99672.41;;;15.66;100.00
28079;BME280;15388;42.238;24.684;2022-09-09T04:16:37;99674.41;;;15.72;100.00
28079;BME280;15388;42.238;24.684;2022-09-09T04:19:03;99678.09;;;15.79;100.00
28079;BME280;15388;42.238;24.684;2022-09-09T04:21:29;99680.47;;;15.83;100.00
28079;BME280;15388;42.238;24.684;2022-09-09T04:23:54;99674.41;;;15.81;100.00
28079;BME280;15388;42.238;24.684;2022-09-09T04:26:20;99672.91;;;15.78;100.00
28079;BME280;15388;42.238;24.684;2022-09-09T04:28:45;99663.19;;;15.85;100.00
28079;BME280;15388;42.238;24.684;2022-09-09T04:31:18;99654.94;;;15.78;100.00
28079;BME280;15388;42.238;24.684;2022-09-09T04:33:45;99685.19;;;15.97;100.00
28079;BME280;15388;42.238;24.684;2022-09-09T04:36:11;99688.34;;;15.92;100.00
28079;BME280;15388;42.238;24.684;2022-09-09T04:38:37;99687.16;;;15.87;100.00
28079;BME280;15388;42.238;24.684;2022-09-09T04:41:03;99691.50;;;15.88;100.00
28079;BME280;15388;42.238;24.684;2022-09-09T04:43:28;99697.03;;;15.95;100.00
28079;BME280;15388;42.238;24.684;2022-09-09T04:45:56;99691.84;;;15.93;100.00
28079;BME280;15388;42.238;24.684;2022-09-09T04:48:21;99692.22;;;16.07;100.00
28079;BME280;15388;42.238;24.684;2022-09-09T04:50:56;99700.06;;;16.16;100.00
28079;BME280;15388;42.238;24.684;2022-09-09T04:53:22;99704.91;;;16.29;100.00
28079;BME280;15388;42.238;24.684;2022-09-09T04:55:47;99702.59;;;16.35;100.00
28079;BME280;15388;42.238;24.684;2022-09-09T04:58:13;99706.56;;;16.47;100.00
28079;BME280;15388;42.238;24.684;2022-09-09T05:00:39;99716.31;;;16.57;100.00
28079;BME280;15388;42.238;24.684;2022-09-09T05:03:05;99715.09;;;16.67;100.00
28079;BME280;15388;42.238;24.684;2022-09-09T05:05:31;99713.25;;;16.68;100.00
28079;BME280;15388;42.238;24.684;2022-09-09T05:08:06;99711.38;;;16.77;100.00
28079;BME280;15388;42.238;24.684;2022-09-09T05:10:32;99705.63;;;16.88;100.00
28079;BME280;15388;42.238;24.684;2022-09-09T05:12:57;99707.63;;;16.94;100.00
28079;BME280;15388;42.238;24.684;2022-09-09T05:15:23;99706.13;;;16.92;100.00
28079;BME280;15388;42.238;24.684;2022-09-09T05:17:48;99702.38;;;17.01;100.00
28079;BME280;15388;42.238;24.684;2022-09-09T05:20:14;99707.94;;;17.08;100.00
28079;BME280;15388;42.238;24.684;2022-09-09T05:22:39;99697.31;;;17.15;100.00
28079;BME280;15388;42.238;24.684;2022-09-09T05:25:05;99700.97;;;17.22;100.00
28079;BME280;15388;42.238;24.684;2022-09-09T05:27:31;99699.75;;;17.33;100.00
28079;BME280;15388;42.238;24.684;2022-09-09T05:29:58;99696.50;;;17.38;100.00
28079;BME280;15388;42.238;24.684;2022-09-09T05:32:23;99700.47;;;17.50;100.00
28079;BME280;15388;42.238;24.684;2022-09-09T05:34:49;99703.59;;;17.62;100.00
28079;BME280;15388;42.238;24.684;2022-09-09T05:37:14;99710.03;;;17.76;100.00
28079;BME280;15388;42.238;24.684;2022-09-09T05:39:39;99704.88;;;17.90;100.00
28079;BME280;15388;42.238;24.684;2022-09-09T05:42:05;99704.53;;;17.93;100.00
28079;BME280;15388;42.238;24.684;2022-09-09T05:44:30;99706.78;;;18.04;100.00
28079;BME280;15388;42.238;24.684;2022-09-09T05:46:56;99699.88;;;18.10;100.00
28079;BME280;15388;42.238;24.684;2022-09-09T05:49:22;99699.97;;;18.17;100.00
28079;BME280;15388;42.238;24.684;2022-09-09T05:51:47;99705.25;;;18.25;99.87
28079;BME280;15388;42.238;24.684;2022-09-09T05:54:13;99699.44;;;18.37;98.88
28079;BME280;15388;42.238;24.684;2022-09-09T05:56:40;99705.00;;;18.50;98.35
28079;BME280;15388;42.238;24.684;2022-09-09T05:59:05;99705.59;;;18.61;97.69
28079;BME280;15388;42.238;24.684;2022-09-09T06:01:32;99700.75;;;18.71;95.01
28079;BME280;15388;42.238;24.684;2022-09-09T06:03:58;99694.63;;;18.77;95.22
28079;BME280;15388;42.238;24.684;2022-09-09T06:06:24;99691.44;;;18.89;94.81
28079;BME280;15388;42.238;24.684;2022-09-09T06:08:52;99689.31;;;18.99;93.88
28079;BME280;15388;42.238;24.684;2022-09-09T06:11:22;99686.34;;;19.09;93.96
28079;BME280;15388;42.238;24.684;2022-09-09T06:13:47;99682.69;;;19.17;91.86
28079;BME280;15388;42.238;24.684;2022-09-09T06:16:13;99675.31;;;19.26;90.89
28079;BME280;15388;42.238;24.684;2022-09-09T06:18:40;99667.94;;;19.34;90.78
28079;BME280;15388;42.238;24.684;2022-09-09T06:21:06;99677.97;;;19.41;89.60
28079;BME280;15388;42.238;24.684;2022-09-09T06:23:32;99681.00;;;19.53;88.80
28079;BME280;15388;42.238;24.684;2022-09-09T06:26:21;99681.47;;;19.56;87.93
28079;BME280;15388;42.238;24.684;2022-09-09T06:28:46;99685.97;;;19.71;87.03
28079;BME280;15388;42.238;24.684;2022-09-09T06:31:13;99698.47;;;19.79;86.49
28079;BME280;15388;42.238;24.684;2022-09-09T06:33:40;99696.47;;;19.88;86.67
28079;BME280;15388;42.238;24.684;2022-09-09T06:36:25;99698.00;;;19.97;84.71
28079;BME280;15388;42.238;24.684;2022-09-09T06:38:51;99697.31;;;20.10;84.55
28079;BME280;15388;42.238;24.684;2022-09-09T06:41:17;99698.59;;;20.14;83.07
28079;BME280;15388;42.238;24.684;2022-09-09T06:43:43;99698.47;;;20.01;82.86
28079;BME280;15388;42.238;24.684;2022-09-09T06:46:13;99699.25;;;20.16;83.25
28079;BME280;15388;42.238;24.684;2022-09-09T06:48:39;99699.13;;;20.31;83.42
28079;BME280;15388;42.238;24.684;2022-09-09T06:51:08;99694.97;;;20.29;81.26
28079;BME280;15388;42.238;24.684;2022-09-09T06:53:34;99687.53;;;20.38;82.54
28079;BME280;15388;42.238;24.684;2022-09-09T06:56:01;99698.47;;;20.58;82.24
28079;BME280;15388;42.238;24.684;2022-09-09T06:58:27;99703.69;;;20.59;81.82
28079;BME280;15388;42.238;24.684;2022-09-09T07:01:01;99696.03;;;20.70;82.54
28079;BME280;15388;42.238;24.684;2022-09-09T07:03:26;99690.72;;;20.83;81.08
28079;BME280;15388;42.238;24.684;2022-09-09T07:05:55;99689.91;;;20.90;80.47
28079;BME280;15388;42.238;24.684;2022-09-09T07:08:21;99688.78;;;21.12;80.56
28079;BME280;15388;42.238;24.684;2022-09-09T07:10:46;99682.16;;;21.29;78.27
28079;BME280;15388;42.238;24.684;2022-09-09T07:13:12;99685.53;;;21.44;77.09
28079;BME280;15388;42.238;24.684;2022-09-09T07:15:40;99689.31;;;21.63;76.94
28079;BME280;15388;42.238;24.684;2022-09-09T07:18:06;99692.44;;;21.67;76.18
28079;BME280;15388;42.238;24.684;2022-09-09T07:20:32;99690.56;;;21.61;73.50
28079;BME280;15388;42.238;24.684;2022-09-09T07:22:57;99688.47;;;21.63;74.23
28079;BME280;15388;42.238;24.684;2022-09-09T07:25:23;99690.59;;;21.74;74.27
28079;BME280;15388;42.238;24.684;2022-09-09T07:27:48;99695.59;;;21.84;74.07
28079;BME280;15388;42.238;24.684;2022-09-09T07:30:14;99691.44;;;22.02;74.27
28079;BME280;15388;42.238;24.684;2022-09-09T07:32:39;99689.97;;;22.26;73.83
28079;BME280;15388;42.238;24.684;2022-09-09T07:35:05;99690.16;;;22.38;72.32
28079;BME280;15388;42.238;24.684;2022-09-09T07:37:30;99684.72;;;22.52;71.41
28079;BME280;15388;42.238;24.684;2022-09-09T07:39:56;99687.59;;;22.71;70.83
28079;BME280;15388;42.238;24.684;2022-09-09T07:42:21;99680.09;;;22.73;70.32
28079;BME280;15388;42.238;24.684;2022-09-09T07:44:46;99689.66;;;22.82;71.85
28079;BME280;15388;42.238;24.684;2022-09-09T07:47:11;99681.94;;;22.86;69.34
28079;BME280;15388;42.238;24.684;2022-09-09T07:49:37;99677.28;;;23.00;70.29
28079;BME280;15388;42.238;24.684;2022-09-09T07:52:02;99673.22;;;23.23;69.90
28079;BME280;15388;42.238;24.684;2022-09-09T07:54:28;99679.34;;;23.50;68.25
28079;BME280;15388;42.238;24.684;2022-09-09T07:56:53;99677.97;;;23.66;68.08
28079;BME280;15388;42.238;24.684;2022-09-09T07:59:19;99655.84;;;23.63;66.63
28079;BME280;15388;42.238;24.684;2022-09-09T08:01:48;99662.72;;;23.91;64.83
28079;BME280;15388;42.238;24.684;2022-09-09T08:04:16;99659.41;;;24.14;65.12
28079;BME280;15388;42.238;24.684;2022-09-09T08:06:43;99659.22;;;24.35;64.70
28079;BME280;15388;42.238;24.684;2022-09-09T08:09:09;99660.06;;;24.54;63.47
28079;BME280;15388;42.238;24.684;2022-09-09T08:11:34;99664.88;;;24.71;62.37
28079;BME280;15388;42.238;24.684;2022-09-09T08:14:01;99664.31;;;24.87;62.63
28079;BME280;15388;42.238;24.684;2022-09-09T08:16:27;99666.25;;;24.99;61.41
28079;BME280;15388;42.238;24.684;2022-09-09T08:18:52;99660.34;;;25.02;61.52
28079;BME280;15388;42.238;24.684;2022-09-09T08:21:26;99661.84;;;25.16;60.44
28079;BME280;15388;42.238;24.684;2022-09-09T08:23:55;99665.28;;;25.24;58.89
28079;BME280;15388;42.238;24.684;2022-09-09T08:26:21;99653.16;;;25.38;59.20
28079;BME280;15388;42.238;24.684;2022-09-09T08:28:51;99653.06;;;25.57;58.83
28079;BME280;15388;42.238;24.684;2022-09-09T08:31:32;99640.56;;;25.68;57.69
28079;BME280;15388;42.238;24.684;2022-09-09T08:33:58;99643.78;;;25.77;56.34
28079;BME280;15388;42.238;24.684;2022-09-09T08:36:31;99637.38;;;25.83;56.99
28079;BME280;15388;42.238;24.684;2022-09-09T08:38:58;99630.38;;;25.99;55.90
28079;BME280;15388;42.238;24.684;2022-09-09T08:51:49;99630.06;;;26.19;56.03
28079;BME280;15388;42.238;24.684;2022-09-09T08:54:15;99623.88;;;26.36;56.03
28079;BME280;15388;42.238;24.684;2022-09-09T08:56:41;99628.00;;;26.51;54.75
28079;BME280;15388;42.238;24.684;2022-09-09T08:59:07;99629.78;;;26.57;54.12
28079;BME280;15388;42.238;24.684;2022-09-09T09:11:35;99612.56;;;26.98;52.12
28079;BME280;15388;42.238;24.684;2022-09-09T09:14:08;99607.25;;;26.91;52.79
28079;BME280;15388;42.238;24.684;2022-09-09T09:19:01;99605.00;;;27.17;51.74
28079;BME280;15388;42.238;24.684;2022-09-09T09:23:56;99599.31;;;27.18;50.71
28079;BME280;15388;42.238;24.684;2022-09-09T09:26:23;99590.13;;;27.25;50.51
28079;BME280;15388;42.238;24.684;2022-09-09T09:28:52;99588.81;;;27.44;52.13
28079;BME280;15388;42.238;24.684;2022-09-09T09:31:19;99580.84;;;27.60;52.60
28079;BME280;15388;42.238;24.684;2022-09-09T09:33:52;99581.84;;;27.88;51.39
28079;BME280;15388;42.238;24.684;2022-09-09T09:36:42;99571.50;;;27.90;49.49
28079;BME280;15388;42.238;24.684;2022-09-09T09:39:06;99578.31;;;28.10;49.94
28079;BME280;15388;42.238;24.684;2022-09-09T09:41:38;99576.97;;;28.30;49.09
28079;BME280;15388;42.238;24.684;2022-09-09T09:44:05;99566.25;;;28.51;49.76
28079;BME280;15388;42.238;24.684;2022-09-09T09:46:31;99571.47;;;28.74;47.57
28079;BME280;15388;42.238;24.684;2022-09-09T09:49:03;99566.09;;;28.85;47.48
28079;BME280;15388;42.238;24.684;2022-09-09T09:51:30;99559.69;;;29.02;47.90
28079;BME280;15388;42.238;24.684;2022-09-09T09:56:34;99563.25;;;29.30;46.36
28079;BME280;15388;42.238;24.684;2022-09-09T09:59:00;99567.25;;;29.49;45.78
28079;BME280;15388;42.238;24.684;2022-09-09T10:01:27;99552.28;;;29.62;45.27
28079;BME280;15388;42.238;24.684;2022-09-09T10:03:54;99548.72;;;29.67;45.85
28079;BME280;15388;42.238;24.684;2022-09-09T10:06:32;99533.44;;;29.71;43.65
28079;BME280;15388;42.238;24.684;2022-09-09T10:08:58;99536.66;;;29.63;44.34
28079;BME280;15388;42.238;24.684;2022-09-09T10:11:35;99523.00;;;29.68;44.85
28079;BME280;15388;42.238;24.684;2022-09-09T10:14:22;99524.16;;;29.83;45.01
28079;BME280;15388;42.238;24.684;2022-09-09T10:19:31;99542.78;;;30.29;43.58
28079;BME280;15388;42.238;24.684;2022-09-09T10:22:02;99539.00;;;30.46;42.33
28079;BME280;15388;42.238;24.684;2022-09-09T10:27:25;99539.41;;;30.91;41.78
28079;BME280;15388;42.238;24.684;2022-09-09T10:35:12;99537.19;;;31.30;41.17
28079;BME280;15388;42.238;24.684;2022-09-09T10:40:28;99517.69;;;31.52;40.35
28079;BME280;15388;42.238;24.684;2022-09-09T10:43:00;99520.69;;;31.66;40.10
28079;BME280;15388;42.238;24.684;2022-09-09T10:48:50;99508.53;;;31.77;38.64
28079;BME280;15388;42.238;24.684;2022-09-09T10:50:55;99501.94;;;31.84;39.63
28079;BME280;15388;42.238;24.684;2022-09-09T10:55:59;99508.44;;;32.19;39.53
28079;BME280;15388;42.238;24.684;2022-09-09T10:58:35;99502.59;;;32.31;38.47
28079;BME280;15388;42.238;24.684;2022-09-09T11:03:48;99503.25;;;32.63;37.17
28079;BME280;15388;42.238;24.684;2022-09-09T11:06:16;99496.03;;;32.72;35.96
28079;BME280;15388;42.238;24.684;2022-09-09T11:08:43;99492.38;;;32.82;37.12
28079;BME280;15388;42.238;24.684;2022-09-09T11:13:47;99472.66;;;33.04;36.57
28079;BME280;15388;42.238;24.684;2022-09-09T11:19:00;99473.50;;;33.29;35.75
28079;BME280;15388;42.238;24.684;2022-09-09T11:21:29;99471.44;;;33.46;36.63
28079;BME280;15388;42.238;24.684;2022-09-09T11:24:02;99463.44;;;33.44;36.19
28079;BME280;15388;42.238;24.684;2022-09-09T11:26:40;99455.03;;;33.60;35.06
28079;BME280;15388;42.238;24.684;2022-09-09T11:29:17;99451.72;;;33.63;35.58
28079;BME280;15388;42.238;24.684;2022-09-09T11:32:04;99454.03;;;33.75;35.01
28079;BME280;15388;42.238;24.684;2022-09-09T11:42:16;99459.22;;;33.52;33.99
28079;BME280;15388;42.238;24.684;2022-09-09T11:44:40;99458.03;;;33.34;35.25
28079;BME280;15388;42.238;24.684;2022-09-09T11:47:26;99454.75;;;33.32;36.17
28079;BME280;15388;42.238;24.684;2022-09-09T11:49:54;99444.19;;;33.14;36.42
28079;BME280;15388;42.238;24.684;2022-09-09T11:52:39;99434.72;;;32.91;36.34
28079;BME280;15388;42.238;24.684;2022-09-09T11:55:11;99437.38;;;33.07;36.40
28079;BME280;15388;42.238;24.684;2022-09-09T11:57:37;99440.06;;;33.12;35.87
28079;BME280;15388;42.238;24.684;2022-09-09T12:00:03;99426.34;;;33.07;34.58
28079;BME280;15388;42.238;24.684;2022-09-09T12:02:29;99422.78;;;33.01;36.54
28079;BME280;15388;42.238;24.684;2022-09-09T12:05:02;99423.31;;;33.08;35.71
28079;BME280;15388;42.238;24.684;2022-09-09T12:12:36;99416.63;;;33.14;36.06
28079;BME280;15388;42.238;24.684;2022-09-09T12:17:42;99412.88;;;32.70;37.67
28079;BME280;15388;42.238;24.684;2022-09-09T12:30:30;99408.41;;;32.39;37.35
28079;BME280;15388;42.238;24.684;2022-09-09T12:33:06;99403.06;;;32.53;36.99
28079;BME280;15388;42.238;24.684;2022-09-09T12:35:33;99396.81;;;32.43;36.84
28079;BME280;15388;42.238;24.684;2022-09-09T12:38:03;99398.75;;;32.47;36.60
28079;BME280;15388;42.238;24.684;2022-09-09T12:40:34;99399.38;;;32.28;36.72
28079;BME280;15388;42.238;24.684;2022-09-09T12:43:00;99403.41;;;32.01;37.13
28079;BME280;15388;42.238;24.684;2022-09-09T12:45:30;99396.34;;;31.80;37.89
28079;BME280;15388;42.238;24.684;2022-09-09T12:47:58;99388.66;;;31.76;38.62
28079;BME280;15388;42.238;24.684;2022-09-09T12:50:30;99389.16;;;31.89;38.43
28079;BME280;15388;42.238;24.684;2022-09-09T12:52:58;99379.41;;;32.12;39.26
28079;BME280;15388;42.238;24.684;2022-09-09T12:55:28;99375.41;;;32.34;40.23
28079;BME280;15388;42.238;24.684;2022-09-09T12:57:55;99369.16;;;32.63;39.25
28079;BME280;15388;42.238;24.684;2022-09-09T13:00:22;99360.94;;;32.88;38.53
28079;BME280;15388;42.238;24.684;2022-09-09T13:02:55;99358.69;;;33.20;36.83
28079;BME280;15388;42.238;24.684;2022-09-09T13:05:25;99363.84;;;33.26;36.63
28079;BME280;15388;42.238;24.684;2022-09-09T13:07:50;99359.78;;;33.43;36.28
28079;BME280;15388;42.238;24.684;2022-09-09T13:10:29;99364.19;;;33.44;35.46
28079;BME280;15388;42.238;24.684;2022-09-09T13:12:59;99355.63;;;33.70;36.91
28079;BME280;15388;42.238;24.684;2022-09-09T13:15:26;99346.69;;;33.98;36.01
28079;BME280;15388;42.238;24.684;2022-09-09T13:17:54;99346.91;;;34.21;35.76
28079;BME280;15388;42.238;24.684;2022-09-09T13:20:20;99350.72;;;33.67;34.90
28079;BME280;15388;42.238;24.684;2022-09-09T13:22:47;99347.28;;;33.75;35.18
28079;BME280;15388;42.238;24.684;2022-09-09T13:27:50;99341.97;;;33.11;35.57
28079;BME280;15388;42.238;24.684;2022-09-09T13:30:34;99341.28;;;32.70;36.25
28079;BME280;15388;42.238;24.684;2022-09-09T13:35:54;99333.38;;;31.78;37.72
28079;BME280;15388;42.238;24.684;2022-09-09T13:38:20;99330.34;;;31.80;39.34
28079;BME280;15388;42.238;24.684;2022-09-09T13:40:53;99322.75;;;31.61;37.90
28079;BME280;15388;42.238;24.684;2022-09-09T13:43:21;99316.50;;;31.39;38.88
28079;BME280;15388;42.238;24.684;2022-09-09T13:45:57;99307.75;;;31.37;38.73
28079;BME280;15388;42.238;24.684;2022-09-09T13:48:24;99310.63;;;31.62;40.28
28079;BME280;15388;42.238;24.684;2022-09-09T13:51:03;99309.38;;;31.89;39.42
28079;BME280;15388;42.238;24.684;2022-09-09T13:53:31;99316.38;;;32.16;39.17
28079;BME280;15388;42.238;24.684;2022-09-09T13:55:57;99308.88;;;32.27;38.23
28079;BME280;15388;42.238;24.684;2022-09-09T13:58:23;99316.22;;;32.37;37.67
28079;BME280;15388;42.238;24.684;2022-09-09T14:00:50;99310.16;;;32.35;37.74
28079;BME280;15388;42.238;24.684;2022-09-09T14:03:15;99307.31;;;32.45;37.60
28079;BME280;15388;42.238;24.684;2022-09-09T14:05:41;99315.56;;;32.45;38.28
28079;BME280;15388;42.238;24.684;2022-09-09T14:08:07;99310.03;;;32.50;38.43
28079;BME280;15388;42.238;24.684;2022-09-09T14:10:36;99303.09;;;32.23;38.61
28079;BME280;15388;42.238;24.684;2022-09-09T14:13:02;99300.88;;;31.85;39.22
28079;BME280;15388;42.238;24.684;2022-09-09T14:15:27;99313.19;;;31.48;40.11
28079;BME280;15388;42.238;24.684;2022-09-09T14:17:53;99310.22;;;31.39;39.71
28079;BME280;15388;42.238;24.684;2022-09-09T14:20:19;99312.28;;;30.86;41.59
28079;BME280;15388;42.238;24.684;2022-09-09T14:22:44;99315.56;;;30.62;42.26
28079;BME280;15388;42.238;24.684;2022-09-09T14:25:10;99314.78;;;30.41;42.43
28079;BME280;15388;42.238;24.684;2022-09-09T14:27:38;99309.22;;;30.10;43.13
28079;BME280;15388;42.238;24.684;2022-09-09T14:30:04;99303.72;;;29.89;44.27
28079;BME280;15388;42.238;24.684;2022-09-09T14:32:30;99299.28;;;29.67;44.76
28079;BME280;15388;42.238;24.684;2022-09-09T14:34:55;99307.44;;;29.46;45.22
28079;BME280;15388;42.238;24.684;2022-09-09T14:37:20;99307.34;;;29.26;45.78
28079;BME280;15388;42.238;24.684;2022-09-09T14:39:46;99310.28;;;29.14;45.92
28079;BME280;15388;42.238;24.684;2022-09-09T14:42:13;99313.28;;;29.07;46.70
28079;BME280;15388;42.238;24.684;2022-09-09T14:44:38;99305.34;;;29.05;47.03
28079;BME280;15388;42.238;24.684;2022-09-09T14:47:04;99305.84;;;28.97;47.47
28079;BME280;15388;42.238;24.684;2022-09-09T14:49:30;99290.78;;;28.99;47.54
28079;BME280;15388;42.238;24.684;2022-09-09T14:51:56;99290.81;;;29.05;47.88
28079;BME280;15388;42.238;24.684;2022-09-09T14:54:21;99293.28;;;29.06;47.18
28079;BME280;15388;42.238;24.684;2022-09-09T14:56:48;99293.53;;;28.99;47.08
28079;BME280;15388;42.238;24.684;2022-09-09T14:59:13;99295.31;;;28.83;48.37
28079;BME280;15388;42.238;24.684;2022-09-09T15:01:39;99290.06;;;28.77;47.76
28079;BME280;15388;42.238;24.684;2022-09-09T15:04:05;99289.53;;;28.80;48.61
28079;BME280;15388;42.238;24.684;2022-09-09T15:06:31;99289.31;;;28.86;48.71
28079;BME280;15388;42.238;24.684;2022-09-09T15:08:58;99286.38;;;28.93;48.38